sensor_id;sensor_type;location;lat;lon;timestamp;P1;durP1;ratioP1;P2;durP2;ratioP2
211;SDS011;16228;48.800;9.002;2022-07-23T00:00:15;5.37;;;4.50;;
211;SDS011;16228;48.800;9.002;2022-07-23T00:02:42;4.20;;;3.80;;
211;SDS011;16228;48.800;9.002;2022-07-23T00:05:09;4.67;;;4.27;;
211;SDS011;16228;48.800;9.002;2022-07-23T00:07:36;4.77;;;4.37;;
211;SDS011;16228;48.800;9.002;2022-07-23T00:10:05;5.53;;;5.00;;
211;SDS011;16228;48.800;9.002;2022-07-23T00:12:33;4.23;;;3.90;;
211;SDS011;16228;48.800;9.002;2022-07-23T00:15:01;4.30;;;3.90;;
211;SDS011;16228;48.800;9.002;2022-07-23T00:17:29;4.53;;;4.13;;
211;SDS011;16228;48.800;9.002;2022-07-23T00:19:56;4.67;;;4.27;;
211;SDS011;16228;48.800;9.002;2022-07-23T00:22:23;4.40;;;4.00;;
211;SDS011;16228;48.800;9.002;2022-07-23T00:24:50;4.60;;;4.10;;
211;SDS011;16228;48.800;9.002;2022-07-23T00:27:18;4.20;;;3.87;;
211;SDS011;16228;48.800;9.002;2022-07-23T00:29:45;4.30;;;3.97;;
211;SDS011;16228;48.800;9.002;2022-07-23T00:32:12;4.37;;;4.07;;
211;SDS011;16228;48.800;9.002;2022-07-23T00:34:39;5.13;;;4.30;;
211;SDS011;16228;48.800;9.002;2022-07-23T00:37:06;4.33;;;3.93;;
211;SDS011;16228;48.800;9.002;2022-07-23T00:39:33;4.53;;;4.13;;
211;SDS011;16228;48.800;9.002;2022-07-23T00:42:00;5.57;;;4.20;;
211;SDS011;16228;48.800;9.002;2022-07-23T00:44:28;4.87;;;4.47;;
211;SDS011;16228;48.800;9.002;2022-07-23T00:46:56;5.03;;;4.10;;
211;SDS011;16228;48.800;9.002;2022-07-23T00:49:25;4.50;;;4.10;;
211;SDS011;16228;48.800;9.002;2022-07-23T00:51:53;4.43;;;4.03;;
211;SDS011;16228;48.800;9.002;2022-07-23T00:54:21;4.17;;;3.77;;
211;SDS011;16228;48.800;9.002;2022-07-23T00:56:49;4.77;;;4.37;;
211;SDS011;16228;48.800;9.002;2022-07-23T00:59:16;5.87;;;4.00;;
211;SDS011;16228;48.800;9.002;2022-07-23T01:01:45;4.10;;;3.70;;
211;SDS011;16228;48.800;9.002;2022-07-23T01:04:14;4.40;;;4.00;;
211;SDS011;16228;48.800;9.002;2022-07-23T01:06:41;4.70;;;4.30;;
211;SDS011;16228;48.800;9.002;2022-07-23T01:09:10;5.40;;;4.13;;
211;SDS011;16228;48.800;9.002;2022-07-23T01:11:37;4.97;;;4.50;;
211;SDS011;16228;48.800;9.002;2022-07-23T01:14:08;4.13;;;3.83;;
211;SDS011;16228;48.800;9.002;2022-07-23T01:16:36;4.20;;;3.90;;
211;SDS011;16228;48.800;9.002;2022-07-23T01:19:04;4.20;;;3.80;;
211;SDS011;16228;48.800;9.002;2022-07-23T01:21:32;4.77;;;3.50;;
211;SDS011;16228;48.800;9.002;2022-07-23T01:24:04;4.07;;;3.67;;
211;SDS011;16228;48.800;9.002;2022-07-23T01:26:32;4.37;;;3.97;;
211;SDS011;16228;48.800;9.002;2022-07-23T01:28:59;4.30;;;3.90;;
211;SDS011;16228;48.800;9.002;2022-07-23T01:31:26;4.40;;;4.10;;
211;SDS011;16228;48.800;9.002;2022-07-23T01:33:53;3.83;;;3.53;;
211;SDS011;16228;48.800;9.002;2022-07-23T01:36:20;4.30;;;3.90;;
211;SDS011;16228;48.800;9.002;2022-07-23T01:38:47;4.60;;;4.17;;
211;SDS011;16228;48.800;9.002;2022-07-23T01:41:16;4.23;;;3.83;;
211;SDS011;16228;48.800;9.002;2022-07-23T01:43:43;3.67;;;3.37;;
211;SDS011;16228;48.800;9.002;2022-07-23T01:46:10;4.63;;;4.23;;
211;SDS011;16228;48.800;9.002;2022-07-23T01:48:37;4.60;;;4.20;;
211;SDS011;16228;48.800;9.002;2022-07-23T01:51:04;4.33;;;3.70;;
211;SDS011;16228;48.800;9.002;2022-07-23T01:53:31;4.40;;;3.97;;
211;SDS011;16228;48.800;9.002;2022-07-23T01:55:58;4.80;;;4.40;;
211;SDS011;16228;48.800;9.002;2022-07-23T01:58:27;4.00;;;3.60;;
211;SDS011;16228;48.800;9.002;2022-07-23T02:00:54;4.67;;;4.27;;
211;SDS011;16228;48.800;9.002;2022-07-23T02:03:22;4.70;;;4.40;;
211;SDS011;16228;48.800;9.002;2022-07-23T02:05:49;5.27;;;4.40;;
211;SDS011;16228;48.800;9.002;2022-07-23T02:08:16;4.53;;;4.20;;
211;SDS011;16228;48.800;9.002;2022-07-23T02:10:43;4.77;;;4.30;;
211;SDS011;16228;48.800;9.002;2022-07-23T02:13:10;4.87;;;4.47;;
211;SDS011;16228;48.800;9.002;2022-07-23T02:15:39;5.10;;;4.70;;
211;SDS011;16228;48.800;9.002;2022-07-23T02:18:05;4.73;;;4.33;;
211;SDS011;16228;48.800;9.002;2022-07-23T02:20:33;4.80;;;4.30;;
211;SDS011;16228;48.800;9.002;2022-07-23T02:23:03;4.47;;;4.07;;
211;SDS011;16228;48.800;9.002;2022-07-23T02:25:31;4.33;;;4.03;;
211;SDS011;16228;48.800;9.002;2022-07-23T02:27:59;4.87;;;4.47;;
211;SDS011;16228;48.800;9.002;2022-07-23T02:30:26;4.77;;;4.27;;
211;SDS011;16228;48.800;9.002;2022-07-23T02:32:54;5.53;;;4.63;;
211;SDS011;16228;48.800;9.002;2022-07-23T02:35:21;4.53;;;4.17;;
211;SDS011;16228;48.800;9.002;2022-07-23T02:37:48;4.60;;;4.20;;
211;SDS011;16228;48.800;9.002;2022-07-23T02:40:16;5.63;;;4.97;;
211;SDS011;16228;48.800;9.002;2022-07-23T02:42:43;5.13;;;4.30;;
211;SDS011;16228;48.800;9.002;2022-07-23T02:45:11;4.90;;;4.50;;
211;SDS011;16228;48.800;9.002;2022-07-23T02:47:38;5.30;;;4.80;;
211;SDS011;16228;48.800;9.002;2022-07-23T02:50:07;4.67;;;4.30;;
211;SDS011;16228;48.800;9.002;2022-07-23T02:52:34;4.93;;;4.53;;
211;SDS011;16228;48.800;9.002;2022-07-23T02:55:01;4.87;;;4.47;;
211;SDS011;16228;48.800;9.002;2022-07-23T02:57:28;5.00;;;4.60;;
211;SDS011;16228;48.800;9.002;2022-07-23T02:59:56;6.67;;;4.40;;
211;SDS011;16228;48.800;9.002;2022-07-23T03:02:23;4.70;;;4.30;;
211;SDS011;16228;48.800;9.002;2022-07-23T03:04:50;5.37;;;4.87;;
211;SDS011;16228;48.800;9.002;2022-07-23T03:07:18;4.67;;;4.27;;
211;SDS011;16228;48.800;9.002;2022-07-23T03:09:45;5.30;;;4.80;;
211;SDS011;16228;48.800;9.002;2022-07-23T03:12:12;4.60;;;4.27;;
211;SDS011;16228;48.800;9.002;2022-07-23T03:14:39;4.50;;;4.10;;
211;SDS011;16228;48.800;9.002;2022-07-23T03:17:06;6.63;;;4.60;;
211;SDS011;16228;48.800;9.002;2022-07-23T03:19:34;4.93;;;4.43;;
211;SDS011;16228;48.800;9.002;2022-07-23T03:22:02;5.93;;;4.33;;
211;SDS011;16228;48.800;9.002;2022-07-23T03:24:30;5.17;;;4.10;;
211;SDS011;16228;48.800;9.002;2022-07-23T03:27:11;4.60;;;4.20;;
211;SDS011;16228;48.800;9.002;2022-07-23T03:29:38;4.70;;;4.30;;
211;SDS011;16228;48.800;9.002;2022-07-23T03:32:05;5.17;;;4.50;;
211;SDS011;16228;48.800;9.002;2022-07-23T03:34:32;5.63;;;4.87;;
211;SDS011;16228;48.800;9.002;2022-07-23T03:36:59;5.13;;;4.53;;
211;SDS011;16228;48.800;9.002;2022-07-23T03:39:26;5.27;;;4.47;;
211;SDS011;16228;48.800;9.002;2022-07-23T03:41:55;5.53;;;5.03;;
211;SDS011;16228;48.800;9.002;2022-07-23T03:44:22;5.23;;;4.73;;
211;SDS011;16228;48.800;9.002;2022-07-23T03:46:49;4.43;;;4.03;;
211;SDS011;16228;48.800;9.002;2022-07-23T03:49:16;5.60;;;5.10;;
211;SDS011;16228;48.800;9.002;2022-07-23T03:51:43;5.23;;;4.83;;
211;SDS011;16228;48.800;9.002;2022-07-23T03:54:10;5.40;;;4.87;;
211;SDS011;16228;48.800;9.002;2022-07-23T03:56:37;6.00;;;5.37;;
211;SDS011;16228;48.800;9.002;2022-07-23T03:59:05;6.03;;;5.23;;
211;SDS011;16228;48.800;9.002;2022-07-23T04:01:32;5.90;;;5.33;;
211;SDS011;16228;48.800;9.002;2022-07-23T04:03:59;6.70;;;5.30;;
211;SDS011;16228;48.800;9.002;2022-07-23T04:06:27;4.87;;;4.50;;
211;SDS011;16228;48.800;9.002;2022-07-23T04:08:54;5.27;;;4.77;;
211;SDS011;16228;48.800;9.002;2022-07-23T04:11:21;5.00;;;4.60;;
211;SDS011;16228;48.800;9.002;2022-07-23T04:13:48;5.60;;;5.10;;
211;SDS011;16228;48.800;9.002;2022-07-23T04:16:17;4.67;;;4.37;;
211;SDS011;16228;48.800;9.002;2022-07-23T04:18:44;5.50;;;4.97;;
211;SDS011;16228;48.800;9.002;2022-07-23T04:21:11;5.80;;;5.20;;
211;SDS011;16228;48.800;9.002;2022-07-23T04:23:37;5.00;;;4.60;;
211;SDS011;16228;48.800;9.002;2022-07-23T04:26:04;5.17;;;4.77;;
211;SDS011;16228;48.800;9.002;2022-07-23T04:28:31;4.50;;;4.20;;
211;SDS011;16228;48.800;9.002;2022-07-23T04:30:59;5.43;;;5.03;;
211;SDS011;16228;48.800;9.002;2022-07-23T04:33:27;5.30;;;4.80;;
211;SDS011;16228;48.800;9.002;2022-07-23T04:35:54;5.20;;;4.70;;
211;SDS011;16228;48.800;9.002;2022-07-23T04:38:21;4.60;;;4.30;;
211;SDS011;16228;48.800;9.002;2022-07-23T04:40:48;6.23;;;4.50;;
211;SDS011;16228;48.800;9.002;2022-07-23T04:43:15;5.83;;;5.33;;
211;SDS011;16228;48.800;9.002;2022-07-23T04:45:42;4.83;;;4.53;;
211;SDS011;16228;48.800;9.002;2022-07-23T04:48:09;5.60;;;5.00;;
211;SDS011;16228;48.800;9.002;2022-07-23T04:50:37;5.27;;;4.87;;
211;SDS011;16228;48.800;9.002;2022-07-23T04:53:04;5.17;;;4.53;;
211;SDS011;16228;48.800;9.002;2022-07-23T04:55:31;4.60;;;4.20;;
211;SDS011;16228;48.800;9.002;2022-07-23T04:57:58;5.40;;;4.90;;
211;SDS011;16228;48.800;9.002;2022-07-23T05:00:25;5.30;;;4.83;;
211;SDS011;16228;48.800;9.002;2022-07-23T05:02:52;5.03;;;4.63;;
211;SDS011;16228;48.800;9.002;2022-07-23T05:05:19;5.37;;;4.90;;
211;SDS011;16228;48.800;9.002;2022-07-23T05:07:47;5.37;;;4.97;;
211;SDS011;16228;48.800;9.002;2022-07-23T05:10:14;5.47;;;4.83;;
211;SDS011;16228;48.800;9.002;2022-07-23T05:12:41;5.00;;;4.50;;
211;SDS011;16228;48.800;9.002;2022-07-23T05:15:08;5.57;;;5.00;;
211;SDS011;16228;48.800;9.002;2022-07-23T05:17:35;5.00;;;4.60;;
211;SDS011;16228;48.800;9.002;2022-07-23T05:20:02;5.20;;;4.80;;
211;SDS011;16228;48.800;9.002;2022-07-23T05:22:30;5.50;;;5.03;;
211;SDS011;16228;48.800;9.002;2022-07-23T05:24:58;4.50;;;4.20;;
211;SDS011;16228;48.800;9.002;2022-07-23T05:27:25;6.43;;;5.37;;
211;SDS011;16228;48.800;9.002;2022-07-23T05:29:52;5.30;;;4.80;;
211;SDS011;16228;48.800;9.002;2022-07-23T05:32:19;5.43;;;4.93;;
211;SDS011;16228;48.800;9.002;2022-07-23T05:34:46;5.43;;;4.93;;
211;SDS011;16228;48.800;9.002;2022-07-23T05:37:13;4.37;;;3.97;;
211;SDS011;16228;48.800;9.002;2022-07-23T05:39:40;5.00;;;4.60;;
211;SDS011;16228;48.800;9.002;2022-07-23T05:42:08;5.37;;;4.87;;
211;SDS011;16228;48.800;9.002;2022-07-23T05:44:35;4.83;;;4.50;;
211;SDS011;16228;48.800;9.002;2022-07-23T05:47:02;4.43;;;4.03;;
211;SDS011;16228;48.800;9.002;2022-07-23T05:49:29;5.07;;;4.57;;
211;SDS011;16228;48.800;9.002;2022-07-23T05:51:56;5.17;;;4.67;;
211;SDS011;16228;48.800;9.002;2022-07-23T05:54:24;5.13;;;4.73;;
211;SDS011;16228;48.800;9.002;2022-07-23T05:56:51;4.90;;;4.40;;
211;SDS011;16228;48.800;9.002;2022-07-23T05:59:19;4.70;;;4.30;;
211;SDS011;16228;48.800;9.002;2022-07-23T06:01:46;5.20;;;4.80;;
211;SDS011;16228;48.800;9.002;2022-07-23T06:04:13;5.43;;;4.60;;
211;SDS011;16228;48.800;9.002;2022-07-23T06:06:40;4.70;;;4.30;;
211;SDS011;16228;48.800;9.002;2022-07-23T06:09:07;4.80;;;4.40;;
211;SDS011;16228;48.800;9.002;2022-07-23T06:11:36;4.50;;;4.20;;
211;SDS011;16228;48.800;9.002;2022-07-23T06:14:02;5.10;;;4.60;;
211;SDS011;16228;48.800;9.002;2022-07-23T06:16:31;6.07;;;4.87;;
211;SDS011;16228;48.800;9.002;2022-07-23T06:18:58;4.97;;;4.57;;
211;SDS011;16228;48.800;9.002;2022-07-23T06:21:25;4.83;;;4.43;;
211;SDS011;16228;48.800;9.002;2022-07-23T06:23:52;4.60;;;4.20;;
211;SDS011;16228;48.800;9.002;2022-07-23T06:26:18;5.63;;;5.03;;
211;SDS011;16228;48.800;9.002;2022-07-23T06:28:45;5.33;;;4.93;;
211;SDS011;16228;48.800;9.002;2022-07-23T06:31:12;4.63;;;4.23;;
211;SDS011;16228;48.800;9.002;2022-07-23T06:33:41;4.50;;;4.10;;
211;SDS011;16228;48.800;9.002;2022-07-23T06:36:08;5.57;;;4.67;;
211;SDS011;16228;48.800;9.002;2022-07-23T06:38:35;4.77;;;4.23;;
211;SDS011;16228;48.800;9.002;2022-07-23T06:41:02;4.90;;;4.20;;
211;SDS011;16228;48.800;9.002;2022-07-23T06:43:29;4.50;;;4.10;;
211;SDS011;16228;48.800;9.002;2022-07-23T06:45:56;4.50;;;4.10;;
211;SDS011;16228;48.800;9.002;2022-07-23T06:48:23;4.60;;;4.20;;
211;SDS011;16228;48.800;9.002;2022-07-23T06:50:52;5.20;;;4.70;;
211;SDS011;16228;48.800;9.002;2022-07-23T06:53:19;5.00;;;4.50;;
211;SDS011;16228;48.800;9.002;2022-07-23T06:55:46;6.30;;;4.87;;
211;SDS011;16228;48.800;9.002;2022-07-23T06:58:13;6.20;;;4.67;;
211;SDS011;16228;48.800;9.002;2022-07-23T07:00:40;4.40;;;4.00;;
211;SDS011;16228;48.800;9.002;2022-07-23T07:03:07;5.03;;;4.50;;
211;SDS011;16228;48.800;9.002;2022-07-23T07:05:34;4.87;;;4.43;;
211;SDS011;16228;48.800;9.002;2022-07-23T07:08:03;4.87;;;4.40;;
211;SDS011;16228;48.800;9.002;2022-07-23T07:10:30;5.20;;;4.63;;
211;SDS011;16228;48.800;9.002;2022-07-23T07:12:57;5.17;;;4.67;;
211;SDS011;16228;48.800;9.002;2022-07-23T07:15:24;6.00;;;5.50;;
211;SDS011;16228;48.800;9.002;2022-07-23T07:17:51;6.47;;;5.60;;
211;SDS011;16228;48.800;9.002;2022-07-23T07:20:18;8.67;;;6.30;;
211;SDS011;16228;48.800;9.002;2022-07-23T07:22:45;7.93;;;6.10;;
211;SDS011;16228;48.800;9.002;2022-07-23T07:25:14;6.17;;;5.57;;
211;SDS011;16228;48.800;9.002;2022-07-23T07:27:41;6.77;;;6.20;;
211;SDS011;16228;48.800;9.002;2022-07-23T07:30:09;5.90;;;5.40;;
211;SDS011;16228;48.800;9.002;2022-07-23T07:32:37;6.00;;;5.30;;
211;SDS011;16228;48.800;9.002;2022-07-23T07:35:04;5.23;;;4.83;;
211;SDS011;16228;48.800;9.002;2022-07-23T07:37:32;5.80;;;5.03;;
211;SDS011;16228;48.800;9.002;2022-07-23T07:39:59;6.03;;;5.53;;
211;SDS011;16228;48.800;9.002;2022-07-23T07:42:28;5.37;;;4.87;;
211;SDS011;16228;48.800;9.002;2022-07-23T07:44:55;6.20;;;5.57;;
211;SDS011;16228;48.800;9.002;2022-07-23T07:47:22;6.20;;;5.70;;
211;SDS011;16228;48.800;9.002;2022-07-23T07:49:49;6.00;;;5.43;;
211;SDS011;16228;48.800;9.002;2022-07-23T07:52:16;6.60;;;6.00;;
211;SDS011;16228;48.800;9.002;2022-07-23T07:54:43;6.00;;;5.50;;
211;SDS011;16228;48.800;9.002;2022-07-23T07:57:10;6.30;;;5.70;;
211;SDS011;16228;48.800;9.002;2022-07-23T07:59:38;6.27;;;5.67;;
211;SDS011;16228;48.800;9.002;2022-07-23T08:02:05;5.93;;;5.43;;
211;SDS011;16228;48.800;9.002;2022-07-23T08:04:32;5.67;;;5.07;;
211;SDS011;16228;48.800;9.002;2022-07-23T08:06:59;4.80;;;4.40;;
211;SDS011;16228;48.800;9.002;2022-07-23T08:09:26;5.80;;;5.30;;
211;SDS011;16228;48.800;9.002;2022-07-23T08:11:53;5.83;;;5.33;;
211;SDS011;16228;48.800;9.002;2022-07-23T08:14:20;6.23;;;5.63;;
211;SDS011;16228;48.800;9.002;2022-07-23T08:16:48;7.53;;;5.50;;
211;SDS011;16228;48.800;9.002;2022-07-23T08:19:15;6.13;;;4.70;;
211;SDS011;16228;48.800;9.002;2022-07-23T08:21:42;5.10;;;4.33;;
211;SDS011;16228;48.800;9.002;2022-07-23T08:24:09;5.17;;;4.40;;
211;SDS011;16228;48.800;9.002;2022-07-23T08:26:36;5.53;;;5.03;;
211;SDS011;16228;48.800;9.002;2022-07-23T08:29:03;5.37;;;4.87;;
211;SDS011;16228;48.800;9.002;2022-07-23T08:31:30;4.70;;;4.30;;
211;SDS011;16228;48.800;9.002;2022-07-23T08:33:59;4.60;;;4.20;;
211;SDS011;16228;48.800;9.002;2022-07-23T08:36:27;4.35;;;3.95;;
211;SDS011;16228;48.800;9.002;2022-07-23T08:38:57;4.57;;;3.88;;
211;SDS011;16228;48.800;9.002;2022-07-23T08:41:24;4.30;;;3.90;;
211;SDS011;16228;48.800;9.002;2022-07-23T08:43:51;4.40;;;3.97;;
211;SDS011;16228;48.800;9.002;2022-07-23T08:46:19;3.90;;;3.50;;
211;SDS011;16228;48.800;9.002;2022-07-23T08:48:47;3.47;;;3.17;;
211;SDS011;16228;48.800;9.002;2022-07-23T08:51:16;3.92;;;3.47;;
211;SDS011;16228;48.800;9.002;2022-07-23T08:53:44;4.38;;;3.63;;
211;SDS011;16228;48.800;9.002;2022-07-23T08:56:12;3.65;;;3.45;;
211;SDS011;16228;48.800;9.002;2022-07-23T08:58:39;3.97;;;3.67;;
211;SDS011;16228;48.800;9.002;2022-07-23T09:01:06;3.33;;;3.13;;
211;SDS011;16228;48.800;9.002;2022-07-23T09:03:34;3.92;;;3.63;;
211;SDS011;16228;48.800;9.002;2022-07-23T09:06:03;3.78;;;3.47;;
211;SDS011;16228;48.800;9.002;2022-07-23T09:08:35;3.50;;;3.30;;
211;SDS011;16228;48.800;9.002;2022-07-23T09:11:04;3.80;;;3.50;;
211;SDS011;16228;48.800;9.002;2022-07-23T09:13:34;3.50;;;3.20;;
211;SDS011;16228;48.800;9.002;2022-07-23T09:16:04;3.60;;;3.30;;
211;SDS011;16228;48.800;9.002;2022-07-23T09:18:38;4.40;;;3.97;;
211;SDS011;16228;48.800;9.002;2022-07-23T09:21:09;4.50;;;3.90;;
211;SDS011;16228;48.800;9.002;2022-07-23T09:23:40;4.73;;;3.57;;
211;SDS011;16228;48.800;9.002;2022-07-23T09:26:19;4.30;;;3.90;;
211;SDS011;16228;48.800;9.002;2022-07-23T09:28:56;5.20;;;4.40;;
211;SDS011;16228;48.800;9.002;2022-07-23T09:31:27;4.90;;;4.50;;
211;SDS011;16228;48.800;9.002;2022-07-23T09:34:06;4.93;;;4.43;;
211;SDS011;16228;48.800;9.002;2022-07-23T09:36:37;4.13;;;3.83;;
211;SDS011;16228;48.800;9.002;2022-07-23T09:39:07;4.20;;;3.80;;
211;SDS011;16228;48.800;9.002;2022-07-23T09:41:39;3.60;;;3.33;;
211;SDS011;16228;48.800;9.002;2022-07-23T09:44:11;3.83;;;3.53;;
211;SDS011;16228;48.800;9.002;2022-07-23T09:46:41;3.67;;;3.38;;
211;SDS011;16228;48.800;9.002;2022-07-23T09:49:10;3.65;;;3.45;;
211;SDS011;16228;48.800;9.002;2022-07-23T09:51:51;3.40;;;3.20;;
211;SDS011;16228;48.800;9.002;2022-07-23T09:54:23;3.88;;;3.58;;
211;SDS011;16228;48.800;9.002;2022-07-23T09:56:53;3.53;;;3.30;;
211;SDS011;16228;48.800;9.002;2022-07-23T09:59:22;3.80;;;3.50;;
211;SDS011;16228;48.800;9.002;2022-07-23T10:01:52;3.80;;;3.50;;
211;SDS011;16228;48.800;9.002;2022-07-23T10:04:20;3.58;;;3.38;;
211;SDS011;16228;48.800;9.002;2022-07-23T10:06:49;4.20;;;3.50;;
211;SDS011;16228;48.800;9.002;2022-07-23T10:09:20;3.80;;;3.50;;
211;SDS011;16228;48.800;9.002;2022-07-23T10:11:51;3.17;;;2.97;;
211;SDS011;16228;48.800;9.002;2022-07-23T10:14:24;3.97;;;3.67;;
211;SDS011;16228;48.800;9.002;2022-07-23T10:17:11;3.30;;;3.10;;
211;SDS011;16228;48.800;9.002;2022-07-23T10:19:38;3.50;;;3.20;;
211;SDS011;16228;48.800;9.002;2022-07-23T10:22:06;3.80;;;3.50;;
211;SDS011;16228;48.800;9.002;2022-07-23T10:24:44;3.90;;;3.60;;
211;SDS011;16228;48.800;9.002;2022-07-23T10:27:22;4.68;;;4.28;;
211;SDS011;16228;48.800;9.002;2022-07-23T10:30:01;3.35;;;3.15;;
211;SDS011;16228;48.800;9.002;2022-07-23T10:32:35;3.90;;;3.60;;
211;SDS011;16228;48.800;9.002;2022-07-23T10:35:10;4.00;;;3.45;;
211;SDS011;16228;48.800;9.002;2022-07-23T10:37:45;3.88;;;3.60;;
211;SDS011;16228;48.800;9.002;2022-07-23T10:40:17;4.07;;;3.65;;
211;SDS011;16228;48.800;9.002;2022-07-23T10:42:48;4.07;;;3.67;;
211;SDS011;16228;48.800;9.002;2022-07-23T10:45:24;4.13;;;3.72;;
211;SDS011;16228;48.800;9.002;2022-07-23T10:47:52;3.50;;;3.30;;
211;SDS011;16228;48.800;9.002;2022-07-23T10:50:20;3.20;;;2.90;;
211;SDS011;16228;48.800;9.002;2022-07-23T10:55:41;3.85;;;3.50;;
211;SDS011;16228;48.800;9.002;2022-07-23T10:58:10;3.65;;;3.35;;
211;SDS011;16228;48.800;9.002;2022-07-23T11:00:43;3.53;;;3.20;;
211;SDS011;16228;48.800;9.002;2022-07-23T11:06:04;4.15;;;3.85;;
211;SDS011;16228;48.800;9.002;2022-07-23T11:08:32;3.63;;;3.33;;
211;SDS011;16228;48.800;9.002;2022-07-23T11:11:10;3.58;;;3.38;;
211;SDS011;16228;48.800;9.002;2022-07-23T11:13:44;3.83;;;3.47;;
211;SDS011;16228;48.800;9.002;2022-07-23T11:16:14;3.72;;;3.42;;
211;SDS011;16228;48.800;9.002;2022-07-23T11:18:59;3.80;;;3.50;;
211;SDS011;16228;48.800;9.002;2022-07-23T11:24:22;3.67;;;3.38;;
211;SDS011;16228;48.800;9.002;2022-07-23T11:26:55;3.75;;;3.45;;
211;SDS011;16228;48.800;9.002;2022-07-23T11:29:46;3.80;;;3.50;;
211;SDS011;16228;48.800;9.002;2022-07-23T11:32:22;3.83;;;3.53;;
211;SDS011;16228;48.800;9.002;2022-07-23T11:34:51;4.10;;;3.80;;
211;SDS011;16228;48.800;9.002;2022-07-23T11:37:36;3.65;;;3.45;;
211;SDS011;16228;48.800;9.002;2022-07-23T11:40:05;4.55;;;3.75;;
211;SDS011;16228;48.800;9.002;2022-07-23T11:45:22;3.63;;;3.35;;
211;SDS011;16228;48.800;9.002;2022-07-23T11:47:50;3.80;;;3.50;;
211;SDS011;16228;48.800;9.002;2022-07-23T11:50:17;4.18;;;3.72;;
211;SDS011;16228;48.800;9.002;2022-07-23T11:52:44;3.97;;;3.67;;
211;SDS011;16228;48.800;9.002;2022-07-23T11:55:11;4.18;;;3.88;;
211;SDS011;16228;48.800;9.002;2022-07-23T11:57:41;3.78;;;3.47;;
211;SDS011;16228;48.800;9.002;2022-07-23T12:00:10;4.25;;;3.88;;
211;SDS011;16228;48.800;9.002;2022-07-23T12:02:41;3.85;;;3.55;;
211;SDS011;16228;48.800;9.002;2022-07-23T12:05:11;4.65;;;4.22;;
211;SDS011;16228;48.800;9.002;2022-07-23T12:07:39;4.50;;;4.10;;
211;SDS011;16228;48.800;9.002;2022-07-23T12:10:09;4.22;;;3.90;;
211;SDS011;16228;48.800;9.002;2022-07-23T12:12:40;3.60;;;3.40;;
211;SDS011;16228;48.800;9.002;2022-07-23T12:15:09;4.43;;;4.03;;
211;SDS011;16228;48.800;9.002;2022-07-23T12:17:38;4.22;;;3.92;;
211;SDS011;16228;48.800;9.002;2022-07-23T12:20:07;4.00;;;3.78;;
211;SDS011;16228;48.800;9.002;2022-07-23T12:22:37;4.18;;;3.88;;
211;SDS011;16228;48.800;9.002;2022-07-23T12:25:07;4.32;;;4.03;;
211;SDS011;16228;48.800;9.002;2022-07-23T12:27:35;4.30;;;4.00;;
211;SDS011;16228;48.800;9.002;2022-07-23T12:30:17;3.75;;;3.45;;
211;SDS011;16228;48.800;9.002;2022-07-23T12:32:46;4.82;;;4.43;;
211;SDS011;16228;48.800;9.002;2022-07-23T12:35:14;4.35;;;4.03;;
211;SDS011;16228;48.800;9.002;2022-07-23T12:37:43;4.18;;;3.78;;
211;SDS011;16228;48.800;9.002;2022-07-23T12:40:18;5.68;;;4.30;;
211;SDS011;16228;48.800;9.002;2022-07-23T12:42:47;4.25;;;3.95;;
211;SDS011;16228;48.800;9.002;2022-07-23T12:45:14;4.07;;;3.78;;
211;SDS011;16228;48.800;9.002;2022-07-23T12:47:57;3.80;;;3.50;;
211;SDS011;16228;48.800;9.002;2022-07-23T12:53:20;4.40;;;4.00;;
211;SDS011;16228;48.800;9.002;2022-07-23T12:55:49;4.95;;;4.50;;
211;SDS011;16228;48.800;9.002;2022-07-23T12:58:18;5.20;;;4.70;;
211;SDS011;16228;48.800;9.002;2022-07-23T13:00:50;3.80;;;3.50;;
211;SDS011;16228;48.800;9.002;2022-07-23T13:03:36;4.50;;;4.10;;
211;SDS011;16228;48.800;9.002;2022-07-23T13:06:06;4.27;;;3.90;;
211;SDS011;16228;48.800;9.002;2022-07-23T13:08:36;4.87;;;4.47;;
211;SDS011;16228;48.800;9.002;2022-07-23T13:11:05;4.77;;;4.47;;
211;SDS011;16228;48.800;9.002;2022-07-23T13:13:33;4.90;;;4.50;;
211;SDS011;16228;48.800;9.002;2022-07-23T13:16:02;4.60;;;4.20;;
211;SDS011;16228;48.800;9.002;2022-07-23T13:18:30;4.60;;;4.20;;
211;SDS011;16228;48.800;9.002;2022-07-23T13:20:57;4.72;;;4.38;;
211;SDS011;16228;48.800;9.002;2022-07-23T13:23:25;4.50;;;4.18;;
211;SDS011;16228;48.800;9.002;2022-07-23T13:25:52;5.00;;;4.32;;
211;SDS011;16228;48.800;9.002;2022-07-23T13:28:20;5.10;;;4.55;;
211;SDS011;16228;48.800;9.002;2022-07-23T13:30:48;4.75;;;4.35;;
211;SDS011;16228;48.800;9.002;2022-07-23T13:33:18;4.82;;;4.40;;
211;SDS011;16228;48.800;9.002;2022-07-23T13:35:45;5.43;;;4.53;;
211;SDS011;16228;48.800;9.002;2022-07-23T13:38:13;4.40;;;4.10;;
211;SDS011;16228;48.800;9.002;2022-07-23T13:40:41;5.38;;;4.22;;
211;SDS011;16228;48.800;9.002;2022-07-23T13:43:10;4.82;;;4.43;;
211;SDS011;16228;48.800;9.002;2022-07-23T13:45:39;5.30;;;4.90;;
211;SDS011;16228;48.800;9.002;2022-07-23T13:48:08;4.77;;;4.37;;
211;SDS011;16228;48.800;9.002;2022-07-23T13:50:37;4.40;;;4.00;;
211;SDS011;16228;48.800;9.002;2022-07-23T13:53:06;5.07;;;4.53;;
211;SDS011;16228;48.800;9.002;2022-07-23T13:55:34;5.00;;;4.50;;
211;SDS011;16228;48.800;9.002;2022-07-23T13:58:02;4.93;;;4.50;;
211;SDS011;16228;48.800;9.002;2022-07-23T14:00:31;4.63;;;4.00;;
211;SDS011;16228;48.800;9.002;2022-07-23T14:02:59;4.47;;;4.00;;
211;SDS011;16228;48.800;9.002;2022-07-23T14:05:26;4.77;;;4.10;;
211;SDS011;16228;48.800;9.002;2022-07-23T14:07:55;4.73;;;4.33;;
211;SDS011;16228;48.800;9.002;2022-07-23T14:10:22;4.73;;;4.30;;
211;SDS011;16228;48.800;9.002;2022-07-23T14:12:50;6.07;;;5.00;;
211;SDS011;16228;48.800;9.002;2022-07-23T14:15:21;4.70;;;4.30;;
211;SDS011;16228;48.800;9.002;2022-07-23T14:17:49;4.97;;;4.47;;
211;SDS011;16228;48.800;9.002;2022-07-23T14:20:16;5.17;;;4.67;;
211;SDS011;16228;48.800;9.002;2022-07-23T14:22:43;5.30;;;4.80;;
211;SDS011;16228;48.800;9.002;2022-07-23T14:25:11;5.03;;;4.63;;
211;SDS011;16228;48.800;9.002;2022-07-23T14:27:39;5.70;;;5.20;;
211;SDS011;16228;48.800;9.002;2022-07-23T14:30:07;5.37;;;4.70;;
211;SDS011;16228;48.800;9.002;2022-07-23T14:32:35;4.83;;;4.43;;
211;SDS011;16228;48.800;9.002;2022-07-23T14:35:03;4.97;;;4.50;;
211;SDS011;16228;48.800;9.002;2022-07-23T14:37:31;5.07;;;4.67;;
211;SDS011;16228;48.800;9.002;2022-07-23T14:39:58;5.03;;;4.60;;
211;SDS011;16228;48.800;9.002;2022-07-23T14:42:27;5.17;;;4.57;;
211;SDS011;16228;48.800;9.002;2022-07-23T14:44:54;5.80;;;5.30;;
211;SDS011;16228;48.800;9.002;2022-07-23T14:47:21;5.60;;;5.03;;
211;SDS011;16228;48.800;9.002;2022-07-23T14:49:48;5.10;;;4.60;;
211;SDS011;16228;48.800;9.002;2022-07-23T14:52:15;5.83;;;5.17;;
211;SDS011;16228;48.800;9.002;2022-07-23T14:54:42;5.03;;;4.63;;
211;SDS011;16228;48.800;9.002;2022-07-23T14:57:09;5.03;;;4.53;;
211;SDS011;16228;48.800;9.002;2022-07-23T14:59:38;5.13;;;4.60;;
211;SDS011;16228;48.800;9.002;2022-07-23T15:02:07;5.37;;;4.60;;
211;SDS011;16228;48.800;9.002;2022-07-23T15:04:34;5.87;;;5.10;;
211;SDS011;16228;48.800;9.002;2022-07-23T15:07:01;5.10;;;4.60;;
211;SDS011;16228;48.800;9.002;2022-07-23T15:09:28;5.00;;;4.60;;
211;SDS011;16228;48.800;9.002;2022-07-23T15:11:55;7.63;;;4.93;;
211;SDS011;16228;48.800;9.002;2022-07-23T15:14:22;7.37;;;5.07;;
211;SDS011;16228;48.800;9.002;2022-07-23T15:16:51;6.03;;;4.87;;
211;SDS011;16228;48.800;9.002;2022-07-23T15:19:18;5.43;;;5.00;;
211;SDS011;16228;48.800;9.002;2022-07-23T15:21:45;8.73;;;5.10;;
211;SDS011;16228;48.800;9.002;2022-07-23T15:24:11;5.13;;;4.70;;
211;SDS011;16228;48.800;9.002;2022-07-23T15:26:39;5.53;;;5.03;;
211;SDS011;16228;48.800;9.002;2022-07-23T15:29:05;5.83;;;5.33;;
211;SDS011;16228;48.800;9.002;2022-07-23T15:31:33;6.53;;;4.47;;
211;SDS011;16228;48.800;9.002;2022-07-23T15:34:01;5.10;;;4.60;;
211;SDS011;16228;48.800;9.002;2022-07-23T15:36:28;5.27;;;4.77;;